Saturday, May 28, 2016
20:07 UTC
  |  Log In   |  Register Free
Airport Search:

South Big Horn County Airport
(KGEY)

South Big Horn County Airport Diagram
No Airport Diagram Available

FAA data valid effective Mar 31 2016 - May 26 2016 (unless otherwise noted).

 
 
 
 
 
 
 
 
 
 
 
 
 
 
Current Aviation Weather for KGEY

Weather Summary


Current weather conditions are not available for GEY - The nearest NOAA weather station is at U68, (28.3 nm NW from GEY)

The most recent METAR observation for GEY was updated at: 12:53 UTC
METAR for KGEY is not available. Closest METAR is for KU68
KGEY  (most recent observation was updatred at 28:19 UTC)
281953Z AUTO VRB03KT 10SM BKN044 18/06 A2995 RMK AO2 SLP124 T01830061

KU68  (28.3 nm SE)   (most recent observation was updated at 28:19 UTC)
281955Z AUTO 19004KT 10SM SCT055 20/02 A2996 RMK AO2 LTG DSNT SE

KWRL  (33.8 nm NW)   (most recent observation was updated at 28:19 UTC)
281953Z AUTO 35005KT 10SM CLR 19/04 A2995 RMK AO2 SLP118 T01890044 $

TAF for KGEY is not available.
KWRL  (33.8 nm NW)   (most recent observation was updatred at 28:17 UTC)
281727Z 2818/2918 33007KT P6SM BKN040 FM281900 35007KT P6SM SCT070 FM290300 VRB05KT P6SM FEW080


GlobalAir.com is loading additional information.
 Current Weather at GEY
63.0 F° (17.2 C°)

East winds at 5.8 mph
Pressure:
29.96 in
Humidity:
52%
Wind:
East at 5.8 mph
Dew Point:
45.0 F° (7.2 C°)
Visibility:
10.00 mi
GEY NOAA Radar




Find All Airport Services Find A Hotel Find A Rental Car Find A Golf Course Find A Restaurant $100 Hamburger



Airport Weather Forecast for KGEY

Translated METAR for KGEY (1953 UTC)
METAR:
KGEY 281953Z AUTO VRB03KT 10SM BKN044 18/06 A2995 RMK AO2 SLP124 T01830061
Conditions at:
KGEY (South Big Horn County, WY) observed 1953 UTC 28 May 2016
Temperature:
18°C (64.4°F)
Dewpoint:
6°C (42.8°F) [RH = 45.4]
Pressure:
29.95 inches Hg (1014.2 mb)
pressure at sea level is 124 in Hg
Winds:
variable wind direction at 3.5 mph (3 knots: 1.5 m/s)
Visibility:
10 mile(s)
Ceiling:
4,400 feet AGL
Clouds:
Broken Cloud Cover at 4,400 feet AGL
Remarks:
site is un-manned
site is automated and HAS a precipitation sensor

Translated TAF for KWRL (Worland Muni, WY) (1727 UTC)
TAF text:
KWRL 281727Z 2818/2918 33007KT P6SM BKN040
Forecast period:
Saturday May 28 2016 18:00 UTC - Sunday May 29 2016 18:00 UTC
Forecast type:
FROM: standard forecast or significant change
Winds:
from the NNW (330 degrees) at 8.1 mph (7 knots: 3.6 m/s)
Visibility:
6 or more mile(s) (9.7+ km)
Ceiling:
4,000 feet AGL
Clouds:
Broken Cloud Cover at 4,000 feet AGL
Weather:
no significant weather observed at this time
TAF text:
FM281900 35007KT P6SM SCT070
Forecast period:
Saturday May 28 2016 19:00 UTC - Sunday May 29 2016 03:00 UTC
Forecast type:
FROM: standard forecast or significant change
Winds:
from the N (350 degrees) at 8.1 mph (7 knots: 3.6 m/s)
Visibility:
6 or more mile(s) (9.7+ km)
Ceiling:
at least 12,000 feet AGL
Clouds:
Scattered Clouds at 7,000 feet AGL
Weather:
no significant weather observed at this time
TAF text:
FM290300 VRB05KT P6SM FEW080
Forecast period:
Sunday May 29 2016 03:00 UTC - Sunday May 29 2016 18:00 UTC
Forecast type:
FROM: standard forecast or significant change
Winds:
variable wind direction at 5.8 mph (5 knots: 2.6 m/s)
Visibility:
6 or more mile(s) (9.7+ km)
Ceiling:
at least 12,000 feet AGL
Clouds:
Few Clouds at 8,000 feet AGL
Weather:
no significant weather observed at this time
FBO's on the Field
FBO Company Facility Photos Services Transportation Aviation Fuel Prices: Prices include tax
Catering Weather Repair Courtesy Rental Type 100LL JetA JetA+ MOGAS 8087
 
B & G Industries, LLC

This FBO has not yet been rated
FS:Independent
Last Updated: May-10
Login to update fuel prices
SS:
Contact B & G Industries, LLCMore FBO Information
 
South Big Horn County Airport

This FBO has not yet been rated
FS:Phillips 66
Last Updated: Apr-22
Login to update fuel prices
SS:
Contact South Big Horn County AirportMore FBO Information
 
Add another FBO Facility Photos Catering Weather Repair Courtesy Rental Type 100LL JetA JetA+ MOGAS 8087
Services Transportation Aviation Fuel Prices: Prices include tax


model-print
model-print
model-print
model-print